createdAt,value
2023-02-24T00:02:05.802Z,9.63
2023-02-24T00:04:41.274Z,28.88
2023-02-24T00:07:10.753Z,26.77
2023-02-24T00:09:39.519Z,15.82
2023-02-24T00:12:10.149Z,13.95
2023-02-24T00:14:40.126Z,18.90
2023-02-24T00:17:08.080Z,11.85
2023-02-24T00:19:37.046Z,21.30
2023-02-24T00:22:06.911Z,10.30
2023-02-24T00:24:35.923Z,19.73
2023-02-24T00:27:07.465Z,21.55
2023-02-24T00:29:37.804Z,23.47
2023-02-24T00:32:07.014Z,16.25
2023-02-24T00:34:36.725Z,19.48
2023-02-24T00:37:06.765Z,14.40
2023-02-24T00:39:35.816Z,21.80
2023-02-24T00:42:04.757Z,18.98
2023-02-24T00:44:37.484Z,17.45
2023-02-24T00:47:06.328Z,18.30
2023-02-24T00:49:36.146Z,13.50
2023-02-24T00:52:08.448Z,36.08
2023-02-24T00:54:38.815Z,26.20
2023-02-24T00:57:08.072Z,14.52
2023-02-24T00:59:36.992Z,15.90
2023-02-24T01:02:06.836Z,18.00
2023-02-24T01:04:34.564Z,12.75
2023-02-24T01:07:01.624Z,26.15
2023-02-24T01:09:32.114Z,19.20
2023-02-24T01:12:17.925Z,33.85
2023-02-24T01:14:47.921Z,39.47
2023-02-24T01:17:16.033Z,33.78
2023-02-24T01:19:44.962Z,29.45
2023-02-24T01:22:14.890Z,26.10
2023-02-24T01:24:44.134Z,15.18
2023-02-24T01:27:15.015Z,22.67
2023-02-24T01:29:42.259Z,20.52
2023-02-24T01:32:16.738Z,36.08
2023-02-24T01:34:44.402Z,19.95
2023-02-24T01:37:16.148Z,20.70
2023-02-24T01:39:45.487Z,12.23
2023-02-24T01:42:20.366Z,8.50
2023-02-24T01:44:48.132Z,9.45
2023-02-24T01:47:18.291Z,8.02
2023-02-24T01:49:47.776Z,6.65
2023-02-24T01:52:18.928Z,7.07
2023-02-24T01:54:54.950Z,7.60
2023-02-24T01:57:26.139Z,8.32
2023-02-24T01:59:57.901Z,6.78
2023-02-24T02:02:25.339Z,7.30
2023-02-24T02:05:01.785Z,7.53
2023-02-24T02:07:30.266Z,7.90
2023-02-24T02:10:03.852Z,7.70
2023-02-24T02:12:37.296Z,6.90
2023-02-24T02:15:05.812Z,7.70
2023-02-24T02:17:45.175Z,7.45
2023-02-24T02:20:20.845Z,8.15
2023-02-24T02:23:18.975Z,7.30
2023-02-24T02:25:54.974Z,7.13
2023-02-24T02:28:21.882Z,7.28
2023-02-24T02:31:46.806Z,7.10
2023-02-24T02:34:19.405Z,6.78
2023-02-24T02:37:08.387Z,7.03
2023-02-24T02:39:59.031Z,6.90
2023-02-24T02:42:37.460Z,7.72
2023-02-24T02:45:10.047Z,8.57
2023-02-24T02:50:21.854Z,6.35
2023-02-24T02:52:57.716Z,7.68
2023-02-24T02:55:36.459Z,8.80
2023-02-24T02:58:09.010Z,7.10
2023-02-24T03:05:53.982Z,5.95
2023-02-24T03:08:25.837Z,7.57
2023-02-24T03:10:58.234Z,7.95
2023-02-24T03:13:28.119Z,7.78
2023-02-24T03:16:00.491Z,6.60
2023-02-24T03:18:32.550Z,7.17
2023-02-24T03:21:08.174Z,7.05
2023-02-24T03:23:40.360Z,7.05
2023-02-24T03:26:19.240Z,7.18
2023-02-24T03:29:11.102Z,6.93
2023-02-24T03:31:38.966Z,8.18
2023-02-24T03:34:15.240Z,6.97
2023-02-24T03:36:43.759Z,7.63
2023-02-24T03:39:15.804Z,7.75
2023-02-24T03:42:07.769Z,9.48
2023-02-24T03:44:35.731Z,8.25
2023-02-24T03:47:03.713Z,7.50
2023-02-24T03:49:31.230Z,7.72
2023-02-24T03:52:25.382Z,7.22
2023-02-24T03:55:18.391Z,8.90
2023-02-24T03:57:55.407Z,7.35
2023-02-24T04:00:42.461Z,7.23
2023-02-24T04:03:18.984Z,7.63
2023-02-24T04:06:06.589Z,7.47
2023-02-24T04:08:46.831Z,7.60
2023-02-24T04:11:30.018Z,7.75
2023-02-24T04:14:19.006Z,7.28
2023-02-24T04:17:03.107Z,7.65
2023-02-24T04:19:38.927Z,7.57
2023-02-24T04:22:10.399Z,6.93
2023-02-24T04:24:41.374Z,8.80
2023-02-24T04:27:12.137Z,8.60
2023-02-24T04:29:48.331Z,6.97
2023-02-24T04:32:21.512Z,7.20
2023-02-24T04:34:49.948Z,8.30
2023-02-24T04:37:23.202Z,8.43
2023-02-24T04:39:55.468Z,8.50
2023-02-24T04:42:28.930Z,8.25
2023-02-24T04:44:58.757Z,7.32
2023-02-24T04:47:28.633Z,8.23
2023-02-24T04:49:55.912Z,7.97
2023-02-24T04:52:22.699Z,8.32
2023-02-24T04:54:50.035Z,7.40
2023-02-24T04:57:16.645Z,7.70
2023-02-24T04:59:44.781Z,7.18
2023-02-24T05:02:13.157Z,7.25
2023-02-24T05:04:41.321Z,8.40
2023-02-24T05:07:07.984Z,8.07
2023-02-24T05:09:35.184Z,7.68
2023-02-24T05:12:02.363Z,8.27
2023-02-24T05:14:30.988Z,7.72
2023-02-24T05:17:00.129Z,8.65
2023-02-24T05:19:46.432Z,7.10
2023-02-24T05:22:16.843Z,7.63
2023-02-24T05:24:44.321Z,8.23
2023-02-24T05:27:11.031Z,7.13
2023-02-24T05:29:38.288Z,8.25
2023-02-24T05:32:05.577Z,7.90
2023-02-24T05:34:34.144Z,8.18
2023-02-24T05:37:07.386Z,6.95
2023-02-24T05:39:35.325Z,8.18
2023-02-24T05:42:06.394Z,8.57
2023-02-24T05:44:35.841Z,7.13
2023-02-24T05:47:05.079Z,7.68
2023-02-24T05:49:35.063Z,7.13
2023-02-24T05:52:08.594Z,7.80
2023-02-24T05:54:40.620Z,7.20
2023-02-24T05:57:11.891Z,7.38
2023-02-24T05:59:41.731Z,6.47
2023-02-24T06:02:11.571Z,7.18
2023-02-24T06:04:54.263Z,7.55
2023-02-24T06:07:24.498Z,6.97
2023-02-24T06:09:57.585Z,7.00
2023-02-24T06:14:58.249Z,7.13
2023-02-24T06:17:25.499Z,6.53
2023-02-24T06:19:53.842Z,7.22
2023-02-24T06:22:22.848Z,6.82
2023-02-24T06:24:50.912Z,7.28
2023-02-24T06:27:21.778Z,7.93
2023-02-24T06:29:54.468Z,7.55
2023-02-24T06:32:24.916Z,7.57
2023-02-24T06:34:54.345Z,7.00
2023-02-24T06:37:23.434Z,6.63
2023-02-24T06:39:51.719Z,6.65
2023-02-24T06:42:18.585Z,6.68
2023-02-24T06:44:46.854Z,6.68
2023-02-24T06:47:16.362Z,6.18
2023-02-24T06:49:43.868Z,6.38
2023-02-24T06:52:11.511Z,5.78
2023-02-24T06:54:38.932Z,6.82
2023-02-24T06:57:05.652Z,6.00
2023-02-24T06:59:33.007Z,7.60
2023-02-24T07:02:01.726Z,5.22
2023-02-24T07:04:29.258Z,6.75
2023-02-24T07:07:03.651Z,6.88
2023-02-24T07:09:32.318Z,7.70
2023-02-24T07:12:02.368Z,7.20
2023-02-24T07:14:33.050Z,5.82
2023-02-24T07:17:00.437Z,6.90
2023-02-24T07:19:30.290Z,7.00
2023-02-24T07:22:02.947Z,6.57
2023-02-24T07:27:23.513Z,6.43
2023-02-24T07:29:53.279Z,6.60
2023-02-24T07:32:22.308Z,7.18
2023-02-24T07:34:49.941Z,7.07
2023-02-24T07:37:16.668Z,6.60
2023-02-24T07:39:44.126Z,7.00
2023-02-24T07:42:14.864Z,7.22
2023-02-24T07:44:46.293Z,5.80
2023-02-24T07:47:13.424Z,6.85
2023-02-24T07:49:41.275Z,6.00
2023-02-24T07:52:08.608Z,6.30
2023-02-24T07:54:35.990Z,5.90
2023-02-24T07:57:02.760Z,5.97
2023-02-24T07:59:35.064Z,5.13
2023-02-24T08:02:07.754Z,6.30
2023-02-24T08:07:04.101Z,5.18
2023-02-24T08:09:45.898Z,6.13
2023-02-24T08:12:40.420Z,5.72
2023-02-24T08:15:23.891Z,5.82
2023-02-24T08:17:59.324Z,5.30
2023-02-24T08:21:04.789Z,5.68
2023-02-24T08:23:34.421Z,4.90
2023-02-24T08:26:03.432Z,5.50
2023-02-24T08:28:30.133Z,5.82
2023-02-24T08:30:57.131Z,5.22
2023-02-24T08:33:23.840Z,4.88
2023-02-24T08:35:53.045Z,5.70
2023-02-24T08:38:21.329Z,5.32
2023-02-24T08:40:51.230Z,5.20
2023-02-24T08:43:32.678Z,5.35
2023-02-24T08:46:14.024Z,6.03
2023-02-24T08:48:43.817Z,5.88
2023-02-24T08:51:18.196Z,5.43
2023-02-24T08:53:46.479Z,4.88
2023-02-24T08:56:24.365Z,4.82
2023-02-24T08:58:57.673Z,4.25
2023-02-24T09:01:31.185Z,5.32
2023-02-24T09:03:59.159Z,4.15
2023-02-24T09:06:39.492Z,4.55
2023-02-24T09:09:18.219Z,4.63
2023-02-24T09:11:57.881Z,3.60
2023-02-24T09:14:37.565Z,5.30
2023-02-24T09:17:07.093Z,5.40
2023-02-24T09:19:52.258Z,5.00
2023-02-24T09:22:31.855Z,4.30
2023-02-24T09:25:21.905Z,3.90
2023-02-24T09:28:07.687Z,4.15
2023-02-24T09:30:37.709Z,4.32
2023-02-24T09:33:17.425Z,4.32
2023-02-24T09:35:52.483Z,4.40
2023-02-24T09:38:36.675Z,3.60
2023-02-24T09:41:18.435Z,3.75
2023-02-24T09:43:45.759Z,4.38
2023-02-24T09:46:15.131Z,4.32
2023-02-24T09:49:23.760Z,3.45
2023-02-24T09:52:00.895Z,3.97
2023-02-24T09:54:33.632Z,5.18
2023-02-24T09:57:10.899Z,4.63
2023-02-24T10:00:23.352Z,5.55
2023-02-24T10:03:19.540Z,4.60
2023-02-24T10:06:04.480Z,5.78
2023-02-24T10:08:38.482Z,5.22
2023-02-24T10:11:08.841Z,5.25
2023-02-24T10:13:43.493Z,4.72
2023-02-24T10:16:15.901Z,5.07
2023-02-24T10:18:48.698Z,4.70
2023-02-24T10:21:49.551Z,5.57
2023-02-24T10:24:29.616Z,4.65
2023-02-24T10:27:08.401Z,4.50
2023-02-24T10:30:19.555Z,4.38
2023-02-24T10:32:52.305Z,4.97
2023-02-24T10:35:22.148Z,4.30
2023-02-24T10:37:49.598Z,4.82
2023-02-24T10:40:33.673Z,5.03
2023-02-24T10:43:10.974Z,4.90
2023-02-24T10:45:44.971Z,4.63
2023-02-24T10:48:41.513Z,3.70
2023-02-24T10:51:21.438Z,4.75
2023-02-24T10:54:14.768Z,4.78
2023-02-24T10:56:55.502Z,4.88
2023-02-24T10:59:22.967Z,4.85
2023-02-24T11:01:58.967Z,5.03
2023-02-24T11:04:55.577Z,5.22
2023-02-24T11:07:25.189Z,5.18
2023-02-24T11:10:11.616Z,10.02
2023-02-24T11:13:09.903Z,21.33
2023-02-24T11:16:15.993Z,12.48
2023-02-24T11:18:52.836Z,8.57
2023-02-24T11:21:19.965Z,7.82
2023-02-24T11:23:50.072Z,13.20
2023-02-24T11:26:45.745Z,11.15
2023-02-24T11:29:40.501Z,6.25
2023-02-24T11:32:30.172Z,8.05
2023-02-24T11:35:18.201Z,6.32
2023-02-24T11:38:03.806Z,5.55
2023-02-24T11:40:39.422Z,5.15
2023-02-24T11:43:13.996Z,5.88
2023-02-24T11:45:48.535Z,6.03
2023-02-24T11:48:23.277Z,5.65
2023-02-24T11:51:07.596Z,4.97
2023-02-24T11:53:45.628Z,5.82
2023-02-24T11:56:22.617Z,4.90
2023-02-24T11:59:00.643Z,7.00
2023-02-24T12:01:52.520Z,7.63
2023-02-24T12:04:26.447Z,7.03
2023-02-24T12:07:07.754Z,6.88
2023-02-24T12:10:17.198Z,6.57
2023-02-24T12:13:16.096Z,7.20
2023-02-24T12:16:03.249Z,7.65
2023-02-24T12:18:59.802Z,8.35
2023-02-24T12:21:34.574Z,7.32
2023-02-24T12:24:08.287Z,6.25
2023-02-24T12:27:01.209Z,6.45
2023-02-24T12:29:54.458Z,7.60
2023-02-24T12:32:38.537Z,7.40
2023-02-24T12:35:20.083Z,7.53
2023-02-24T12:38:04.916Z,7.65
2023-02-24T12:41:09.893Z,6.40
2023-02-24T12:43:49.722Z,6.43
2023-02-24T12:46:36.249Z,7.78
2023-02-24T12:49:19.314Z,8.23
2023-02-24T12:52:07.775Z,7.00
2023-02-24T12:54:53.836Z,6.13
2023-02-24T12:57:51.684Z,6.82
2023-02-24T13:00:30.669Z,7.15
2023-02-24T13:03:23.973Z,6.82
2023-02-24T13:05:55.408Z,8.07
2023-02-24T13:08:34.870Z,7.38
2023-02-24T13:11:30.327Z,7.28
2023-02-24T13:14:14.759Z,7.00
2023-02-24T13:16:41.532Z,6.88
2023-02-24T13:19:25.900Z,7.10
2023-02-24T13:22:07.076Z,7.32
2023-02-24T13:24:36.067Z,6.70
2023-02-24T13:27:22.384Z,8.23
2023-02-24T13:29:57.503Z,6.97
2023-02-24T13:32:36.360Z,7.90
2023-02-24T13:35:15.078Z,8.10
2023-02-24T13:37:44.428Z,7.53
2023-02-24T13:40:23.724Z,8.25
2023-02-24T13:42:59.426Z,7.97
2023-02-24T13:45:40.022Z,8.77
2023-02-24T13:48:09.400Z,7.75
2023-02-24T13:50:58.300Z,7.93
2023-02-24T13:53:46.596Z,8.27
2023-02-24T13:56:24.944Z,8.57
2023-02-24T13:59:19.688Z,8.32
2023-02-24T14:02:00.437Z,9.05
2023-02-24T14:04:36.124Z,9.02
2023-02-24T14:07:09.072Z,9.07
2023-02-24T14:09:48.103Z,10.55
2023-02-24T14:12:27.909Z,10.40
2023-02-24T14:14:56.163Z,10.35
2023-02-24T14:17:33.786Z,12.75
2023-02-24T14:20:09.998Z,11.93
2023-02-24T14:22:55.198Z,15.00
2023-02-24T14:25:24.134Z,14.73
2023-02-24T14:27:52.628Z,17.88
2023-02-24T14:30:31.580Z,19.02
2023-02-24T14:32:58.990Z,18.13
2023-02-24T14:35:47.324Z,20.27
2023-02-24T14:38:37.389Z,20.15
2023-02-24T14:41:20.300Z,19.50
2023-02-24T14:43:46.902Z,18.45
2023-02-24T14:46:14.146Z,21.45
2023-02-24T14:48:40.779Z,21.77
2023-02-24T14:51:19.609Z,22.45
2023-02-24T14:53:51.776Z,23.85
2023-02-24T14:56:21.427Z,22.92
2023-02-24T14:58:55.318Z,22.10
2023-02-24T15:01:32.131Z,22.98
2023-02-24T15:04:09.405Z,22.45
2023-02-24T15:06:41.053Z,22.40
2023-02-24T15:09:14.602Z,21.17
2023-02-24T15:11:42.046Z,20.60
2023-02-24T15:14:22.916Z,21.02
2023-02-24T15:16:54.225Z,21.27
2023-02-24T15:19:27.571Z,23.15
2023-02-24T15:21:55.141Z,23.52
2023-02-24T15:24:29.698Z,26.05
2023-02-24T15:27:02.534Z,24.83
2023-02-24T15:29:32.260Z,24.95
2023-02-24T15:32:01.092Z,23.05
2023-02-24T15:34:31.741Z,24.90
2023-02-24T15:37:04.099Z,24.85
2023-02-24T15:39:32.296Z,24.13
2023-02-24T15:42:16.120Z,25.02
2023-02-24T15:44:57.034Z,26.48
2023-02-24T15:47:29.641Z,24.88
2023-02-24T15:49:56.309Z,26.58
2023-02-24T15:52:28.955Z,25.35
2023-02-24T15:54:57.820Z,24.83
2023-02-24T15:57:25.296Z,23.77
2023-02-24T15:59:52.219Z,24.50
2023-02-24T16:02:21.372Z,23.52
2023-02-24T16:04:49.091Z,23.10
2023-02-24T16:07:22.837Z,20.42
2023-02-24T16:09:52.444Z,23.15
2023-02-24T16:12:23.956Z,24.20
2023-02-24T16:14:56.636Z,22.30
2023-02-24T16:17:40.300Z,21.00
2023-02-24T16:20:31.213Z,20.67
2023-02-24T16:22:59.580Z,25.23
2023-02-24T16:25:27.995Z,23.10
2023-02-24T16:27:58.618Z,19.77
2023-02-24T16:30:30.085Z,15.90
2023-02-24T16:33:01.442Z,16.58
2023-02-24T16:35:28.831Z,15.93
2023-02-24T16:37:56.364Z,17.23
2023-02-24T16:40:27.915Z,15.65
2023-02-24T16:42:55.286Z,13.88
2023-02-24T16:45:25.527Z,12.10
2023-02-24T16:47:55.421Z,12.82
2023-02-24T16:50:27.941Z,12.38
2023-02-24T16:52:55.136Z,13.95
2023-02-24T16:55:22.430Z,13.85
2023-02-24T16:57:49.521Z,15.70
2023-02-24T17:00:17.086Z,17.05
2023-02-24T17:02:45.839Z,22.50
2023-02-24T17:05:24.635Z,23.17
2023-02-24T17:07:56.056Z,29.50
2023-02-24T17:10:24.679Z,109.93
2023-02-24T17:12:52.277Z,46.38
2023-02-24T17:15:22.348Z,21.83
2023-02-24T17:17:49.790Z,12.10
2023-02-24T17:20:19.493Z,23.73
2023-02-24T17:22:47.027Z,22.55
2023-02-24T17:25:19.106Z,18.20
2023-02-24T17:27:46.424Z,20.38
2023-02-24T17:30:15.657Z,14.48
2023-02-24T17:32:42.918Z,13.90
2023-02-24T17:35:10.160Z,12.32
2023-02-24T17:37:37.424Z,13.00
2023-02-24T17:40:06.531Z,17.02
2023-02-24T17:42:34.371Z,15.15
2023-02-24T17:45:01.113Z,13.32
2023-02-24T17:47:28.342Z,17.73
2023-02-24T17:49:55.174Z,31.63
2023-02-24T17:52:22.590Z,15.75
2023-02-24T17:54:49.354Z,12.60
2023-02-24T17:57:17.143Z,12.82
2023-02-24T17:59:45.806Z,10.68
2023-02-24T18:02:14.039Z,15.93
2023-02-24T18:04:40.814Z,22.85
2023-02-24T18:07:09.242Z,20.35
2023-02-24T18:09:36.084Z,21.90
2023-02-24T18:12:04.006Z,27.98
2023-02-24T18:14:31.314Z,24.27
2023-02-24T18:16:58.251Z,28.75
2023-02-24T18:19:25.258Z,13.45
2023-02-24T18:21:52.558Z,17.52
2023-02-24T18:24:19.422Z,16.27
2023-02-24T18:26:46.775Z,6.47
2023-02-24T18:29:13.435Z,17.58
2023-02-24T18:31:41.219Z,9.70
2023-02-24T18:34:08.034Z,8.90
2023-02-24T18:36:35.297Z,6.40
2023-02-24T18:39:02.110Z,6.20
2023-02-24T18:41:29.566Z,6.60
2023-02-24T18:43:57.167Z,5.25
2023-02-24T18:46:26.201Z,4.78
2023-02-24T18:48:55.062Z,4.35
2023-02-24T18:51:26.348Z,3.42
2023-02-24T18:53:53.571Z,4.05
2023-02-24T18:56:26.452Z,5.28
2023-02-24T18:58:56.062Z,3.45
2023-02-24T19:01:28.971Z,51.78
2023-02-24T19:03:56.210Z,31.48
2023-02-24T19:06:27.002Z,19.75
2023-02-24T19:09:09.728Z,6.40
2023-02-24T19:11:37.828Z,5.57
2023-02-24T19:14:05.061Z,6.35
2023-02-24T19:16:32.892Z,5.80
2023-02-24T19:19:00.004Z,6.30
2023-02-24T19:21:29.535Z,12.80
2023-02-24T19:23:58.892Z,13.02
2023-02-24T19:26:27.379Z,9.65
2023-02-24T19:28:54.107Z,39.10
2023-02-24T19:31:24.828Z,16.48
2023-02-24T19:33:56.919Z,4.68
2023-02-24T19:36:24.747Z,6.20
2023-02-24T19:38:52.086Z,10.60
2023-02-24T19:41:19.329Z,9.48
2023-02-24T19:43:46.047Z,12.27
2023-02-24T19:46:15.878Z,10.93
2023-02-24T19:48:43.068Z,8.35
2023-02-24T19:51:11.984Z,12.23
2023-02-24T19:53:38.891Z,11.02
2023-02-24T19:56:06.485Z,9.73
2023-02-24T19:58:33.984Z,8.18
2023-02-24T20:01:06.525Z,5.70
2023-02-24T20:03:33.201Z,4.05
2023-02-24T20:06:00.661Z,4.63
2023-02-24T20:08:27.263Z,5.60
2023-02-24T20:11:02.390Z,6.80
2023-02-24T20:13:29.466Z,6.72
2023-02-24T20:16:12.035Z,7.75
2023-02-24T20:18:39.965Z,11.40
2023-02-24T20:21:07.877Z,8.65
2023-02-24T20:23:34.737Z,18.63
2023-02-24T20:26:02.190Z,8.80
2023-02-24T20:28:29.662Z,7.13
2023-02-24T20:30:59.235Z,7.80
2023-02-24T20:33:26.265Z,9.35
2023-02-24T20:35:53.612Z,10.75
2023-02-24T20:38:20.207Z,7.25
2023-02-24T20:40:59.385Z,11.48
2023-02-24T20:43:27.308Z,12.25
2023-02-24T20:45:54.333Z,10.38
2023-02-24T20:48:21.430Z,8.90
2023-02-24T20:50:48.621Z,15.45
2023-02-24T20:53:15.331Z,8.75
2023-02-24T20:55:42.353Z,8.85
2023-02-24T20:58:09.127Z,10.23
2023-02-24T21:00:38.631Z,9.05
2023-02-24T21:03:07.641Z,9.45
2023-02-24T21:05:35.029Z,7.63
2023-02-24T21:08:01.699Z,7.65
2023-02-24T21:10:28.312Z,6.78
2023-02-24T21:12:55.042Z,5.20
2023-02-24T21:15:22.068Z,7.07
2023-02-24T21:17:48.689Z,6.93
2023-02-24T21:20:16.051Z,7.40
2023-02-24T21:22:42.666Z,5.70
2023-02-24T21:25:13.593Z,6.15
2023-02-24T21:27:40.327Z,6.57
2023-02-24T21:30:08.887Z,6.88
2023-02-24T21:32:35.770Z,7.05
2023-02-24T21:35:03.520Z,6.22
2023-02-24T21:37:30.452Z,7.00
2023-02-24T21:39:57.747Z,5.90
2023-02-24T21:42:24.394Z,5.72
2023-02-24T21:44:51.645Z,7.53
2023-02-24T21:47:18.643Z,5.75
2023-02-24T21:49:46.520Z,5.60
2023-02-24T21:52:13.567Z,4.72
2023-02-24T21:54:42.412Z,5.75
2023-02-24T21:57:09.052Z,5.88
2023-02-24T21:59:36.305Z,5.72
2023-02-24T22:02:02.988Z,5.95
2023-02-24T22:04:29.695Z,6.22
2023-02-24T22:06:56.373Z,5.72
2023-02-24T22:09:23.800Z,6.13
2023-02-24T22:11:51.440Z,6.82
2023-02-24T22:14:19.065Z,5.85
2023-02-24T22:16:45.755Z,5.50
2023-02-24T22:19:13.689Z,8.98
2023-02-24T22:21:42.376Z,9.60
2023-02-24T22:24:15.647Z,20.17
2023-02-24T22:29:10.797Z,10.35
2023-02-24T22:31:38.990Z,17.38
2023-02-24T22:34:09.034Z,14.27
2023-02-24T22:36:39.029Z,8.40
2023-02-24T22:39:07.468Z,6.72
2023-02-24T22:41:35.231Z,9.57
2023-02-24T22:44:05.002Z,12.02
2023-02-24T22:46:34.928Z,32.05
2023-02-24T22:49:02.731Z,10.35
2023-02-24T22:51:29.538Z,8.50
2023-02-24T22:53:57.365Z,17.90
2023-02-24T22:56:27.044Z,16.38
2023-02-24T22:58:54.774Z,18.55
2023-02-24T23:01:27.851Z,18.15
2023-02-24T23:03:55.943Z,14.68
2023-02-24T23:06:25.687Z,7.57
2023-02-24T23:08:54.424Z,8.05
2023-02-24T23:11:27.690Z,6.50
2023-02-24T23:13:57.248Z,13.40
2023-02-24T23:16:31.096Z,10.57
2023-02-24T23:19:01.137Z,10.18
2023-02-24T23:21:39.937Z,9.45
2023-02-24T23:24:09.126Z,8.18
2023-02-24T23:26:54.300Z,5.85
2023-02-24T23:29:22.984Z,8.80
2023-02-24T23:31:50.258Z,6.95
2023-02-24T23:34:18.149Z,6.32
2023-02-24T23:36:46.636Z,9.35
2023-02-24T23:39:16.939Z,6.85
2023-02-24T23:41:44.046Z,7.53
2023-02-24T23:44:12.692Z,8.30
2023-02-24T23:46:39.645Z,7.57
2023-02-24T23:49:07.134Z,7.68
2023-02-24T23:51:47.690Z,6.32
2023-02-24T23:54:17.513Z,5.85
2023-02-24T23:56:44.317Z,5.05
2023-02-24T23:59:12.067Z,5.72
